Time;durP1;ratioP1;P1;durP2;ratioP2;P2;SDS_P1;SDS_P2;PMS_P1;PMS_P2;Temp;Humidity;BMP_temperature;BMP_pressure;BME280_temperature;BME280_humidity;BME280_pressure;Samples;Min_cycle;Max_cycle;Signal;HPM_P1;HPM_P2
2023/10/15 00:02:13;;;;;;;1.00;0.45;;;;;;;14.83;100.00;97335.09;1225543;75;2962509;-68
2023/10/15 00:04:46;;;;;;;0.30;0.30;;;;;;;14.82;100.00;97323.31;1225696;75;2917532;-69
2023/10/15 00:07:19;;;;;;;1.35;0.40;;;;;;;14.46;100.00;97320.53;1224566;75;2973702;-66
2023/10/15 00:09:52;;;;;;;0.30;0.30;;;;;;;14.85;100.00;97319.53;1226272;75;2923405;-66
2023/10/15 00:12:30;;;;;;;0.30;0.30;;;;;;;14.86;100.00;97323.81;1224818;83;2912250;-70
2023/10/15 00:15:03;;;;;;;0.20;0.20;;;;;;;14.99;100.00;97319.69;1226201;75;2923763;-66
2023/10/15 00:17:36;;;;;;;0.35;0.20;;;;;;;14.90;100.00;97313.22;1225104;75;2972350;-70
2023/10/15 00:20:13;;;;;;;0.40;0.20;;;;;;;14.80;100.00;97309.31;1226565;75;2914713;-74
2023/10/15 00:22:45;;;;;;;0.75;0.30;;;;;;;14.71;100.00;97317.88;1225981;75;2920977;-71
2023/10/15 00:25:20;;;;;;;0.70;0.50;;;;;;;14.76;100.00;97317.09;1225682;75;2914836;-68
2023/10/15 00:27:56;;;;;;;0.30;0.30;;;;;;;14.82;100.00;97308.81;1225673;75;2918860;-66
2023/10/15 00:30:32;;;;;;;0.20;0.20;;;;;;;14.65;100.00;97308.94;1225447;75;2916722;-71
2023/10/15 00:33:06;;;;;;;0.30;0.30;;;;;;;14.62;100.00;97298.91;1224988;75;2917834;-68
2023/10/15 00:35:44;;;;;;;0.20;0.20;;;;;;;14.45;100.00;97299.00;1225648;75;2919477;-74
2023/10/15 00:38:20;;;;;;;0.20;0.20;;;;;;;14.52;100.00;97300.47;1226034;75;2918524;-73
2023/10/15 00:40:53;;;;;;;0.30;0.30;;;;;;;14.65;100.00;97304.16;1226803;75;2914809;-70
2023/10/15 00:43:28;;;;;;;0.40;0.40;;;;;;;14.59;100.00;97305.44;1224958;75;2913283;-70
2023/10/15 00:46:09;;;;;;;0.25;0.20;;;;;;;14.20;100.00;97306.41;1225690;75;2911945;-71
2023/10/15 00:48:42;;;;;;;0.80;0.45;;;;;;;14.14;100.00;97303.69;1226015;75;2920543;-68
2023/10/15 00:51:20;;;;;;;0.50;0.40;;;;;;;14.16;100.00;97303.19;1225777;75;2925314;-72
2023/10/15 00:53:55;;;;;;;0.20;0.20;;;;;;;14.32;100.00;97310.59;1225065;75;2928878;-70
2023/10/15 00:56:33;;;;;;;0.20;0.20;;;;;;;14.52;100.00;97323.25;1225949;75;2918682;-71
2023/10/15 00:59:16;;;;;;;0.20;0.20;;;;;;;14.68;100.00;97329.94;1225354;75;2919187;-68
2023/10/15 01:02:03;;;;;;;0.20;0.20;;;;;;;14.65;100.00;97347.50;1225073;75;2922185;-68
2023/10/15 01:04:37;;;;;;;0.30;0.20;;;;;;;14.68;100.00;97335.44;1225955;75;2919512;-70
2023/10/15 01:07:27;;;;;;;0.25;0.25;;;;;;;14.72;100.00;97337.91;1224783;75;2920821;-65
2023/10/15 01:10:00;;;;;;;0.55;0.30;;;;;;;14.57;100.00;97338.28;1224420;75;2918987;-71
2023/10/15 01:12:35;;;;;;;0.40;0.30;;;;;;;14.40;100.00;97350.09;1225543;75;2918877;-68
2023/10/15 01:15:12;;;;;;;0.60;0.30;;;;;;;14.64;100.00;97343.22;1224639;75;2933895;-73
2023/10/15 01:17:44;;;;;;;0.30;0.25;;;;;;;14.54;100.00;97350.31;1225644;75;2911144;-68
2023/10/15 01:20:19;;;;;;;0.10;0.10;;;;;;;14.60;100.00;97353.78;1225404;75;2917824;-67
2023/10/15 01:22:52;;;;;;;0.20;0.10;;;;;;;14.51;100.00;97345.81;1225990;75;2914382;-67
2023/10/15 01:25:34;;;;;;;0.15;0.15;;;;;;;14.70;100.00;97352.22;1225456;75;2924919;-67
2023/10/15 01:28:07;;;;;;;0.20;0.20;;;;;;;14.40;100.00;97341.09;1225931;75;2915849;-69
2023/10/15 01:30:41;;;;;;;0.95;0.35;;;;;;;14.36;100.00;97346.88;1225989;75;2911962;-67
2023/10/15 01:33:13;;;;;;;0.60;0.30;;;;;;;14.43;100.00;97353.84;1223904;75;2926502;-66
2023/10/15 01:35:46;;;;;;;0.20;0.20;;;;;;;14.55;100.00;97341.56;1225253;75;2944213;-67
2023/10/15 01:38:27;;;;;;;0.40;0.40;;;;;;;14.52;100.00;97352.81;1226017;75;2907323;-69
2023/10/15 01:41:03;;;;;;;1.15;0.80;;;;;;;14.27;100.00;97350.69;1225619;75;2916434;-65
2023/10/15 01:43:37;;;;;;;1.05;0.70;;;;;;;14.45;100.00;97349.31;1224923;75;2921027;-67
2023/10/15 01:46:10;;;;;;;2.80;0.80;;;;;;;14.05;100.00;97351.53;1224111;75;2917384;-71
2023/10/15 01:48:43;;;;;;;0.95;0.70;;;;;;;14.22;100.00;97364.47;1225688;75;2914131;-71
2023/10/15 01:51:16;;;;;;;0.80;0.55;;;;;;;14.39;100.00;97353.38;1225424;75;2932298;-70
2023/10/15 01:53:50;;;;;;;0.50;0.50;;;;;;;14.42;100.00;97352.34;1225581;75;2915693;-72
2023/10/15 01:56:27;;;;;;;0.60;0.40;;;;;;;14.39;100.00;97342.38;1225774;75;2918977;-72
2023/10/15 01:59:07;;;;;;;1.05;0.30;;;;;;;14.53;100.00;97337.75;1226283;75;2913613;-70
2023/10/15 02:01:40;;;;;;;0.30;0.30;;;;;;;14.45;100.00;97349.31;1226661;75;2909964;-70
2023/10/15 02:04:18;;;;;;;0.20;0.20;;;;;;;14.39;100.00;97345.13;1225838;75;2930383;-71
2023/10/15 02:06:51;;;;;;;0.30;0.30;;;;;;;14.39;100.00;97342.38;1226255;75;2915351;-69
2023/10/15 02:09:23;;;;;;;0.35;0.20;;;;;;;14.47;100.00;97348.81;1225609;75;2937636;-70
2023/10/15 02:11:59;;;;;;;0.60;0.30;;;;;;;14.31;100.00;97344.16;1225339;75;2923515;-69
2023/10/15 02:14:32;;;;;;;0.60;0.30;;;;;;;14.18;100.00;97350.22;1225515;75;2913880;-71
2023/10/15 02:17:06;;;;;;;0.65;0.40;;;;;;;14.10;100.00;97349.25;1224612;75;2917627;-70
2023/10/15 02:19:40;;;;;;;0.70;0.30;;;;;;;14.15;100.00;97354.00;1226332;75;2912946;-67
2023/10/15 02:22:15;;;;;;;0.10;0.10;;;;;;;14.05;100.00;97348.03;1211460;75;4021758;-70
2023/10/15 02:24:56;;;;;;;0.30;0.25;;;;;;;14.17;100.00;97345.97;1226383;75;2923598;-70
2023/10/15 02:27:35;;;;;;;0.35;0.20;;;;;;;14.25;100.00;97352.44;1222089;67;2964657;-69
2023/10/15 02:30:12;;;;;;;0.20;0.20;;;;;;;14.25;100.00;97349.69;1201398;75;4852330;-67
2023/10/15 02:32:46;;;;;;;0.50;0.20;;;;;;;14.22;100.00;97351.44;1225845;75;2931087;-68
2023/10/15 02:35:24;;;;;;;0.30;0.20;;;;;;;14.32;100.00;97351.16;1226493;75;2923395;-71
2023/10/15 02:37:58;;;;;;;0.60;0.20;;;;;;;14.24;100.00;97350.97;1225480;75;2927735;-71
2023/10/15 02:40:36;;;;;;;0.40;0.10;;;;;;;14.28;100.00;97348.66;1226511;75;2915181;-71
2023/10/15 02:43:13;;;;;;;0.85;0.20;;;;;;;14.10;100.00;97357.53;1198378;75;4016103;-72
2023/10/15 02:45:47;;;;;;;0.20;0.20;;;;;;;14.14;100.00;97358.00;1225504;75;2915975;-72
2023/10/15 02:48:23;;;;;;;0.30;0.30;;;;;;;14.15;100.00;97345.75;1223841;67;2940485;-71
2023/10/15 02:51:07;;;;;;;0.40;0.20;;;;;;;14.21;100.00;97354.69;1222348;75;3000001;-68
2023/10/15 02:53:49;;;;;;;1.85;0.20;;;;;;;14.07;100.00;97348.28;1225082;75;2919263;-72
2023/10/15 02:56:23;;;;;;;0.65;0.30;;;;;;;14.12;100.00;97347.50;1225160;75;2919091;-69
2023/10/15 02:58:58;;;;;;;0.20;0.20;;;;;;;14.01;100.00;97358.56;1225204;75;2916536;-74
2023/10/15 03:01:31;;;;;;;0.30;0.30;;;;;;;14.03;100.00;97367.78;1224967;75;2924312;-68
2023/10/15 03:04:09;;;;;;;0.95;0.30;;;;;;;14.25;100.00;97369.69;1224931;75;2924683;-71
2023/10/15 03:06:42;;;;;;;0.80;0.50;;;;;;;14.20;100.00;97362.22;1226295;75;2920327;-74
2023/10/15 03:09:18;;;;;;;1.55;0.70;;;;;;;14.00;100.00;97360.56;1225671;75;2920363;-68
2023/10/15 03:11:51;;;;;;;0.80;0.60;;;;;;;14.27;100.00;97361.69;1225385;75;2926501;-70
2023/10/15 03:14:28;;;;;;;0.65;0.50;;;;;;;14.10;100.00;97371.28;1224301;75;2914423;-71
2023/10/15 03:17:01;;;;;;;0.40;0.40;;;;;;;14.24;100.00;97370.22;1225486;75;2912723;-70
2023/10/15 03:19:35;;;;;;;1.20;0.60;;;;;;;13.81;100.00;97378.88;1221947;75;3034717;-70
2023/10/15 03:22:10;;;;;;;0.40;0.40;;;;;;;14.17;100.00;97381.78;1225748;75;2930683;-70
2023/10/15 03:24:44;;;;;;;0.70;0.40;;;;;;;13.87;100.00;97393.34;1226122;75;2910943;-71
2023/10/15 03:27:22;;;;;;;0.80;0.40;;;;;;;13.93;100.00;97387.84;1223428;75;2914602;-67
2023/10/15 03:29:57;;;;;;;0.50;0.40;;;;;;;13.86;100.00;97383.63;1223254;75;2950266;-70
2023/10/15 03:32:31;;;;;;;0.30;0.30;;;;;;;14.05;100.00;97390.06;1225322;75;2915512;-72
2023/10/15 03:35:05;;;;;;;1.15;0.40;;;;;;;13.86;100.00;97394.63;1225802;75;2925533;-70
2023/10/15 03:37:45;;;;;;;0.50;0.40;;;;;;;13.56;100.00;97400.66;1226155;75;2922767;-72
2023/10/15 03:43:06;;;;;;;0.30;0.30;;;;;;;13.73;100.00;97397.88;1224944;75;2918826;-68
2023/10/15 03:45:50;;;;;;;0.30;0.30;;;;;;;14.01;100.00;97394.31;1222975;75;3009333;-69
2023/10/15 03:48:28;;;;;;;0.65;0.30;;;;;;;13.65;100.00;97391.41;1225878;75;2917591;-70
2023/10/15 03:51:01;;;;;;;0.70;0.40;;;;;;;13.88;100.00;97402.34;1225976;75;2919005;-67
2023/10/15 03:53:36;;;;;;;0.40;0.40;;;;;;;13.32;100.00;97411.44;1225203;75;2916129;-68
2023/10/15 03:56:08;;;;;;;0.30;0.30;;;;;;;13.66;100.00;97409.41;1223896;75;2914648;-71
2023/10/15 03:58:41;;;;;;;0.25;0.25;;;;;;;13.52;100.00;97413.94;1224638;75;2959374;-69
2023/10/15 04:01:17;;;;;;;0.60;0.40;;;;;;;13.77;100.00;97409.38;1224923;75;2925909;-69
2023/10/15 04:03:50;;;;;;;0.50;0.30;;;;;;;13.96;100.00;97417.13;1222460;75;2999552;-67
2023/10/15 04:06:23;;;;;;;0.20;0.20;;;;;;;14.06;100.00;97416.31;1222740;75;2959800;-73
2023/10/15 04:09:09;;;;;;;0.70;0.20;;;;;;;14.03;100.00;97422.84;1224499;75;2952580;-71
2023/10/15 04:11:45;;;;;;;0.30;0.20;;;;;;;14.04;100.00;97418.09;1222843;75;2918993;-69
2023/10/15 04:14:26;;;;;;;0.20;0.20;;;;;;;14.14;100.00;97421.31;1224907;75;2937059;-69
2023/10/15 04:17:01;;;;;;;0.30;0.20;;;;;;;13.89;100.00;97410.13;1225465;75;2918610;-68
2023/10/15 04:19:35;;;;;;;0.70;0.30;;;;;;;14.07;100.00;97406.81;1223279;75;2943584;-69
2023/10/15 04:22:13;;;;;;;0.10;0.10;;;;;;;14.13;100.00;97414.31;1224940;75;2952845;-69
2023/10/15 04:24:49;;;;;;;0.50;0.20;;;;;;;13.99;100.00;97405.81;1221853;75;3098687;-68
2023/10/15 04:27:24;;;;;;;0.80;0.40;;;;;;;13.56;100.00;97391.66;1222975;75;2919770;-68
2023/10/15 04:30:00;;;;;;;1.15;0.60;;;;;;;13.63;100.00;97386.41;1224599;75;2917078;-68
2023/10/15 04:32:45;;;;;;;1.30;0.40;;;;;;;13.61;100.00;97382.66;1225344;75;2918586;-71
2023/10/15 04:35:18;;;;;;;0.90;0.60;;;;;;;13.62;100.00;97389.69;1225339;75;2922162;-72
2023/10/15 04:37:52;;;;;;;0.80;0.50;;;;;;;13.47;100.00;97391.94;1224733;75;2949336;-69
2023/10/15 04:40:25;;;;;;;4.35;0.65;;;;;;;13.21;100.00;97396.41;1222888;75;2934805;-67
2023/10/15 04:42:59;;;;;;;1.05;0.50;;;;;;;13.32;100.00;97400.44;1224762;75;2913922;-69
2023/10/15 04:45:41;;;;;;;0.40;0.40;;;;;;;13.35;100.00;97402.94;1225455;75;2922437;-67
2023/10/15 04:48:25;;;;;;;0.40;0.40;;;;;;;13.31;100.00;97409.94;1223530;75;2928001;-66
2023/10/15 04:51:04;;;;;;;0.30;0.30;;;;;;;13.63;100.00;97416.66;1224930;75;2924639;-71
2023/10/15 04:53:37;;;;;;;0.35;0.35;;;;;;;13.33;100.00;97430.19;1224376;75;2919182;-66
2023/10/15 04:56:09;;;;;;;0.40;0.30;;;;;;;13.42;100.00;97427.19;1225145;75;2923520;-66
2023/10/15 04:58:43;;;;;;;0.30;0.30;;;;;;;13.41;100.00;97430.44;1209961;75;4047065;-68
2023/10/15 05:01:16;;;;;;;0.40;0.40;;;;;;;13.26;100.00;97427.16;1222949;75;2935728;-68
2023/10/15 05:03:51;;;;;;;0.50;0.30;;;;;;;13.22;100.00;97436.38;1207980;75;4254853;-69
2023/10/15 05:06:24;;;;;;;0.75;0.40;;;;;;;13.12;100.00;97443.38;1224503;75;2923063;-67
2023/10/15 05:08:57;;;;;;;1.00;0.60;;;;;;;13.12;100.00;97437.16;1224454;75;2926625;-72
2023/10/15 05:11:31;;;;;;;1.15;0.50;;;;;;;13.16;100.00;97443.91;1225179;75;2918540;-71
2023/10/15 05:14:04;;;;;;;0.50;0.40;;;;;;;13.40;100.00;97439.94;1225106;75;2915008;-72
2023/10/15 05:16:37;;;;;;;0.50;0.30;;;;;;;13.46;100.00;97442.69;1224924;75;2922256;-68
2023/10/15 05:19:13;;;;;;;0.65;0.20;;;;;;;13.53;100.00;97455.94;1225004;75;2918193;-66
2023/10/15 05:21:47;;;;;;;0.40;0.40;;;;;;;13.55;100.00;97448.69;1224725;75;2927223;-70
2023/10/15 05:24:21;;;;;;;0.85;0.40;;;;;;;13.57;100.00;97448.94;1224176;75;2927866;-66
2023/10/15 05:26:54;;;;;;;0.80;0.20;;;;;;;13.58;100.00;97450.41;1223946;75;2921931;-70
2023/10/15 05:29:26;;;;;;;0.20;0.20;;;;;;;13.34;100.00;97447.44;1221020;75;3070034;-71
2023/10/15 05:32:00;;;;;;;1.05;0.40;;;;;;;13.29;100.00;97448.94;1221732;75;2977064;-71
2023/10/15 05:34:35;;;;;;;0.95;0.40;;;;;;;13.45;100.00;97449.44;1225458;75;2917300;-70
2023/10/15 05:37:07;;;;;;;0.20;0.20;;;;;;;13.53;100.00;97448.44;1211187;75;3993257;-68
2023/10/15 05:39:41;;;;;;;0.30;0.30;;;;;;;13.39;100.00;97452.19;1225421;75;2923275;-69
2023/10/15 05:42:15;;;;;;;0.40;0.40;;;;;;;13.22;100.00;97457.63;1221943;75;2936210;-69
2023/10/15 05:44:48;;;;;;;0.75;0.70;;;;;;;12.71;100.00;97457.53;1225273;75;2929578;-69
2023/10/15 05:47:21;;;;;;;0.65;0.50;;;;;;;12.86;100.00;97462.06;1224636;75;2925484;-70
2023/10/15 05:49:57;;;;;;;0.85;0.55;;;;;;;12.89;100.00;97474.81;1224443;67;2933653;-70
2023/10/15 05:52:29;;;;;;;1.55;0.55;;;;;;;12.97;100.00;97478.59;1224799;75;2921769;-67
2023/10/15 05:55:05;;;;;;;6.85;5.80;;;;;;;12.71;100.00;97474.00;1224596;75;2920740;-72
2023/10/15 05:57:37;;;;;;;4.20;2.75;;;;;;;12.55;100.00;97477.44;1224186;75;2991234;-68
2023/10/15 06:00:26;;;;;;;14.30;11.70;;;;;;;12.67;100.00;97468.00;1225453;75;2919071;-69
2023/10/15 06:03:00;;;;;;;4.90;3.70;;;;;;;12.84;100.00;97478.28;1191002;75;5499042;-70
2023/10/15 06:05:35;;;;;;;4.80;2.50;;;;;;;12.97;100.00;97482.09;1222427;75;3019570;-72
2023/10/15 06:08:09;;;;;;;2.45;1.70;;;;;;;12.79;100.00;97488.78;1224784;75;2926813;-70
2023/10/15 06:10:41;;;;;;;3.10;1.45;;;;;;;12.54;100.00;97500.66;1211410;75;3945252;-70
2023/10/15 06:13:14;;;;;;;4.35;1.15;;;;;;;12.60;100.00;97508.94;1221880;75;2971852;-75
2023/10/15 06:15:48;;;;;;;0.80;0.70;;;;;;;12.62;100.00;97498.19;1224114;75;2929264;-68
2023/10/15 06:18:21;;;;;;;0.90;0.65;;;;;;;12.35;100.00;97503.06;1221934;75;2931528;-69
2023/10/15 06:20:57;;;;;;;1.15;0.70;;;;;;;12.52;100.00;97514.88;1224590;75;2941843;-69
2023/10/15 06:23:30;;;;;;;1.35;1.00;;;;;;;12.38;100.00;97504.84;1225613;75;2909911;-68
2023/10/15 06:26:02;;;;;;;2.70;2.20;;;;;;;12.50;100.00;97509.13;1225587;75;2919401;-67
2023/10/15 06:28:35;;;;;;;1.75;1.25;;;;;;;12.53;100.00;97497.19;1225036;75;2925033;-71
2023/10/15 06:31:09;;;;;;;4.40;3.40;;;;;;;12.29;100.00;97500.31;1224980;75;2921129;-70
2023/10/15 06:33:41;;;;;;;10.75;7.70;;;;;;;12.33;100.00;97519.28;1222743;75;3023686;-69
2023/10/15 06:36:18;;;;;;;13.85;10.55;;;;;;;12.26;100.00;97511.50;1224637;75;2923421;-70
2023/10/15 06:38:51;;;;;;;3.00;1.90;;;;;;;11.81;100.00;97533.13;1223501;75;2930422;-71
2023/10/15 06:41:24;;;;;;;2.05;1.60;;;;;;;12.10;100.00;97530.13;1205913;75;4034552;-71
2023/10/15 06:43:57;;;;;;;6.95;5.15;;;;;;;12.21;100.00;97518.47;1222524;75;3021294;-66
2023/10/15 06:46:31;;;;;;;4.40;2.75;;;;;;;12.23;100.00;97526.97;1224361;75;2920271;-70
2023/10/15 06:49:03;;;;;;;3.55;2.50;;;;;;;12.21;100.00;97531.44;1197407;67;3953143;-71
2023/10/15 06:51:39;;;;;;;5.60;4.20;;;;;;;12.67;100.00;97536.66;1210600;75;3977548;-71
2023/10/15 06:54:12;;;;;;;6.55;2.90;;;;;;;12.21;100.00;97534.19;1225230;75;2916235;-69
2023/10/15 06:56:44;;;;;;;5.25;2.85;;;;;;;12.13;100.00;97537.38;1223760;75;2919992;-70
2023/10/15 06:59:17;;;;;;;3.25;2.15;;;;;;;12.18;100.00;97551.63;1222692;75;3015299;-69
2023/10/15 07:01:50;;;;;;;2.40;2.00;;;;;;;12.01;100.00;97552.25;1200108;75;4937635;-67
2023/10/15 07:04:24;;;;;;;2.70;1.60;;;;;;;12.13;100.00;97548.34;1225006;75;2917784;-68
2023/10/15 07:06:59;;;;;;;1.50;0.90;;;;;;;12.38;100.00;97556.25;1223834;75;2944536;-67
2023/10/15 07:09:32;;;;;;;1.60;0.90;;;;;;;12.41;100.00;97552.50;1208116;75;3959207;-69
2023/10/15 07:12:04;;;;;;;2.85;1.60;;;;;;;12.09;100.00;97556.06;1221376;75;3044695;-70
2023/10/15 07:14:39;;;;;;;3.35;0.90;;;;;;;12.18;100.00;97555.13;1224386;75;2924542;-68
2023/10/15 07:17:12;;;;;;;1.90;1.15;;;;;;;12.18;100.00;97570.84;1225508;75;2917710;-71
2023/10/15 07:19:45;;;;;;;2.20;1.30;;;;;;;12.02;100.00;97569.47;1225297;75;2918890;-72
2023/10/15 07:22:21;;;;;;;2.50;1.10;;;;;;;12.03;100.00;97571.75;1224916;75;2913263;-72
2023/10/15 07:24:54;;;;;;;1.95;1.25;;;;;;;12.03;100.00;97574.47;1224754;75;2920037;-71
2023/10/15 07:27:27;;;;;;;2.65;1.25;;;;;;;11.85;100.00;97583.78;1222748;75;3010985;-69
2023/10/15 07:29:59;;;;;;;4.10;2.20;;;;;;;11.68;100.00;97599.34;1225141;75;2920790;-68
2023/10/15 07:32:32;;;;;;;3.60;2.20;;;;;;;11.72;100.00;97597.13;1224095;75;2932056;-69
2023/10/15 07:35:06;;;;;;;3.30;1.60;;;;;;;11.83;100.00;97601.94;1222989;75;2926893;-70
2023/10/15 07:37:43;;;;;;;3.70;1.95;;;;;;;11.71;100.00;97604.63;1224864;75;2924351;-70
2023/10/15 07:40:21;;;;;;;3.85;1.90;;;;;;;11.58;100.00;97593.25;1223898;75;2923980;-71
2023/10/15 07:42:58;;;;;;;3.10;1.60;;;;;;;11.85;100.00;97610.44;1224889;75;2922919;-70
2023/10/15 07:45:34;;;;;;;4.70;2.10;;;;;;;11.73;100.00;97615.06;1223739;75;2920767;-68
2023/10/15 07:48:11;;;;;;;3.10;1.80;;;;;;;12.00;100.00;97616.63;1224432;75;2919592;-70
2023/10/15 07:50:45;;;;;;;3.20;1.45;;;;;;;12.08;100.00;97622.41;1224143;75;2922633;-71
2023/10/15 07:53:21;;;;;;;1.80;1.30;;;;;;;12.24;100.00;97621.03;1220838;75;3046997;-69
2023/10/15 07:55:53;;;;;;;3.40;1.80;;;;;;;11.92;100.00;97621.03;1221810;75;3016058;-72
2023/10/15 07:58:26;;;;;;;3.70;2.00;;;;;;;11.89;100.00;97622.00;1224300;75;2929499;-70
2023/10/15 08:00:59;;;;;;;3.80;2.00;;;;;;;11.78;100.00;97625.34;1218888;75;3104087;-68
2023/10/15 08:03:32;;;;;;;3.15;1.90;;;;;;;11.67;100.00;97626.00;1224066;75;2929553;-71
2023/10/15 08:06:07;;;;;;;5.45;3.00;;;;;;;11.72;100.00;97625.31;1225206;75;2916906;-69
2023/10/15 08:08:42;;;;;;;4.05;2.45;;;;;;;11.57;100.00;97618.41;1221815;75;3030283;-68
2023/10/15 08:11:15;;;;;;;5.65;3.45;;;;;;;11.57;100.00;97621.16;1223062;75;2999934;-67
2023/10/15 08:13:48;;;;;;;5.95;2.90;;;;;;;11.41;100.00;97622.50;1224992;75;2929533;-68
2023/10/15 08:16:22;;;;;;;6.15;2.75;;;;;;;11.42;100.00;97627.47;1224856;75;2928702;-66
2023/10/15 08:18:54;;;;;;;4.45;2.15;;;;;;;11.64;100.00;97632.47;1223791;75;2931238;-65
2023/10/15 08:21:27;;;;;;;3.35;2.20;;;;;;;11.54;100.00;97633.84;1223944;75;2926320;-67
2023/10/15 08:24:03;;;;;;;3.50;1.80;;;;;;;11.72;100.00;97635.53;1224658;75;2919033;-69
2023/10/15 08:26:37;;;;;;;2.85;2.10;;;;;;;11.71;100.00;97632.03;1223819;75;2922065;-67
2023/10/15 08:29:10;;;;;;;4.55;2.45;;;;;;;11.48;100.00;97642.00;1224650;75;2936484;-69
2023/10/15 08:31:42;;;;;;;2.35;1.75;;;;;;;11.43;100.00;97633.72;1224904;75;2912807;-68
2023/10/15 08:34:15;;;;;;;5.55;2.20;;;;;;;11.54;100.00;97641.31;1223851;75;2917230;-68
2023/10/15 08:36:48;;;;;;;5.15;2.10;;;;;;;11.55;100.00;97645.56;1225009;75;2911406;-71
2023/10/15 08:39:23;;;;;;;4.35;1.90;;;;;;;11.61;100.00;97654.59;1224434;75;2932032;-69
2023/10/15 08:42:00;;;;;;;5.00;2.95;;;;;;;11.67;100.00;97653.44;1225297;75;2898304;-70
2023/10/15 08:44:33;;;;;;;6.05;2.80;;;;;;;11.68;100.00;97660.41;1224671;75;2911270;-67
2023/10/15 08:47:07;;;;;;;5.60;3.40;;;;;;;11.42;100.00;97670.59;1223206;75;2970292;-70
2023/10/15 08:49:47;;;;;;;6.50;2.60;;;;;;;11.20;100.00;97671.06;1224849;75;2916245;-69
2023/10/15 08:52:21;;;;;;;5.15;2.45;;;;;;;11.11;100.00;97666.47;1225380;75;2925389;-68
2023/10/15 08:54:59;;;;;;;5.95;2.25;;;;;;;11.43;100.00;97674.84;1211704;75;3867038;-71
2023/10/15 08:57:34;;;;;;;3.90;2.20;;;;;;;11.34;100.00;97674.97;1224855;75;2913185;-68
2023/10/15 09:00:25;;;;;;;2.45;1.80;;;;;;;11.60;100.00;97669.56;1224844;75;2926641;-70
2023/10/15 09:03:00;;;;;;;3.20;2.25;;;;;;;11.26;100.00;97664.44;1223512;75;2919988;-68
2023/10/15 09:05:34;;;;;;;2.45;1.60;;;;;;;11.51;100.00;97659.47;1224547;75;2920988;-67
2023/10/15 09:08:10;;;;;;;3.60;2.30;;;;;;;11.16;100.00;97662.28;1224583;75;2920220;-73
2023/10/15 09:10:45;;;;;;;4.50;2.50;;;;;;;11.18;100.00;97668.81;1222654;75;2921387;-70
2023/10/15 09:13:19;;;;;;;9.50;3.25;;;;;;;11.12;100.00;97667.25;1224818;75;2917727;-68
2023/10/15 09:15:55;;;;;;;3.25;2.10;;;;;;;11.22;100.00;97676.84;1224476;75;2928656;-64
2023/10/15 09:18:34;;;;;;;3.80;1.95;;;;;;;11.24;100.00;97674.38;1224790;75;2922631;-70
2023/10/15 09:21:08;;;;;;;5.50;2.40;;;;;;;11.22;100.00;97658.41;1224855;75;2928039;-66
2023/10/15 09:23:42;;;;;;;5.95;2.80;;;;;;;11.24;100.00;97669.63;1224060;75;2983636;-67
2023/10/15 09:26:19;;;;;;;5.10;2.60;;;;;;;11.49;100.00;97673.66;1224409;75;2922540;-67
2023/10/15 09:28:52;;;;;;;3.15;1.70;;;;;;;11.96;100.00;97670.94;1223007;75;2915208;-67
2023/10/15 09:31:26;;;;;;;3.75;2.30;;;;;;;11.89;100.00;97680.34;1223587;75;2927424;-66
2023/10/15 09:33:59;;;;;;;3.85;2.30;;;;;;;11.88;100.00;97678.84;1224144;75;2920268;-66
2023/10/15 09:36:38;;;;;;;4.30;2.65;;;;;;;11.87;100.00;97685.56;1225041;75;2915387;-66
2023/10/15 09:39:12;;;;;;;4.05;2.00;;;;;;;11.73;100.00;97689.13;1225456;75;2924834;-69
2023/10/15 09:41:48;;;;;;;6.10;4.50;;;;;;;11.68;100.00;97687.09;1223685;75;2929970;-67
2023/10/15 09:44:21;;;;;;;7.80;5.85;;;;;;;11.49;100.00;97689.34;1223498;75;2931179;-69
2023/10/15 09:46:53;;;;;;;4.75;2.60;;;;;;;11.44;100.00;97690.78;1224796;75;2920762;-67
2023/10/15 09:49:27;;;;;;;2.70;2.00;;;;;;;11.62;100.00;97689.03;1225467;75;2922976;-68
2023/10/15 09:52:05;;;;;;;3.80;2.20;;;;;;;11.70;100.00;97696.31;1225707;75;2914469;-67
2023/10/15 09:54:37;;;;;;;2.65;1.90;;;;;;;11.81;100.00;97700.41;1224306;75;2930002;-68
2023/10/15 09:57:15;;;;;;;3.15;2.10;;;;;;;11.65;100.00;97686.06;1225837;75;2911481;-65
2023/10/15 09:59:53;;;;;;;2.70;1.75;;;;;;;11.66;100.00;97678.56;1224833;75;2917488;-66
2023/10/15 10:02:39;;;;;;;4.40;2.20;;;;;;;11.75;100.00;97670.19;1223381;75;2920339;-64
2023/10/15 10:05:44;;;;;;;3.40;2.15;;;;;;;11.58;100.00;97666.53;1225896;75;2915595;-68
2023/10/15 10:08:32;;;;;;;4.15;2.15;;;;;;;11.68;100.00;97668.63;1224950;75;2916376;-68
2023/10/15 10:11:26;;;;;;;4.10;2.30;;;;;;;11.76;100.00;97670.94;1225036;75;2921506;-68
2023/10/15 10:14:45;;;;;;;3.10;1.90;;;;;;;12.08;100.00;97680.03;1225169;75;2923818;-70
2023/10/15 10:17:20;;;;;;;3.95;2.40;;;;;;;11.93;100.00;97682.88;1225238;75;2919728;-71
2023/10/15 10:19:53;;;;;;;4.25;2.30;;;;;;;11.95;100.00;97683.13;1226331;75;2914063;-70
2023/10/15 10:22:28;;;;;;;3.50;1.90;;;;;;;12.36;100.00;97674.75;1225156;75;2919865;-67
2023/10/15 10:25:01;;;;;;;1.35;1.10;;;;;;;12.71;100.00;97660.78;1225335;75;2928151;-68
2023/10/15 10:27:45;;;;;;;3.05;1.65;;;;;;;12.24;100.00;97664.94;1224477;75;2913618;-68
2023/10/15 10:30:30;;;;;;;2.75;1.80;;;;;;;11.99;100.00;97669.97;1225205;75;2918157;-74
2023/10/15 10:33:06;;;;;;;2.30;1.55;;;;;;;12.39;100.00;97673.81;1225507;75;2918199;-72
2023/10/15 10:35:48;;;;;;;1.50;1.30;;;;;;;12.59;100.00;97678.44;1226100;75;2925780;-73
2023/10/15 10:38:22;;;;;;;1.95;1.25;;;;;;;12.67;100.00;97673.25;1223984;75;2924952;-69
2023/10/15 10:41:03;;;;;;;2.15;1.30;;;;;;;12.14;100.00;97680.81;1224398;75;2917327;-70
2023/10/15 10:43:36;;;;;;;2.90;1.65;;;;;;;12.67;100.00;97682.22;1224777;75;2914996;-68
2023/10/15 10:46:22;;;;;;;2.85;1.70;;;;;;;12.49;100.00;97683.38;1225544;75;2917341;-69
2023/10/15 10:49:08;;;;;;;4.25;2.35;;;;;;;12.46;100.00;97686.31;1224932;75;2926325;-69
2023/10/15 10:51:40;;;;;;;5.60;2.20;;;;;;;12.36;100.00;97683.78;1224576;75;2925896;-70
2023/10/15 10:54:29;;;;;;;4.00;1.05;;;;;;;12.20;92.99;97676.16;1224381;75;2920791;-70
2023/10/15 10:57:09;;;;;;;1.90;1.00;;;;;;;12.09;91.73;97684.28;1225648;75;2922874;-70
2023/10/15 10:59:45;;;;;;;2.00;1.15;;;;;;;12.58;83.24;97674.19;1225503;75;2917902;-66
2023/10/15 11:02:20;;;;;;;4.65;3.45;;;;;;;12.60;100.00;97670.94;1225780;75;2917536;-70
2023/10/15 11:04:54;;;;;;;4.95;3.20;;;;;;;12.44;100.00;97692.31;1222426;75;2983082;-70
2023/10/15 11:07:40;;;;;;;3.45;1.45;;;;;;;12.00;80.06;97685.22;1225762;75;2920367;-69
2023/10/15 11:10:16;;;;;;;3.45;2.25;;;;;;;12.32;94.10;97664.03;1219255;75;3208931;-69
2023/10/15 11:12:50;;;;;;;3.20;1.90;;;;;;;12.30;94.57;97663.00;1225482;75;2916353;-69
2023/10/15 11:15:23;;;;;;;5.00;1.85;;;;;;;12.18;98.15;97666.91;1225865;75;2929090;-66
2023/10/15 11:18:04;;;;;;;1.95;1.00;;;;;;;12.44;99.94;97672.34;1224944;75;2920858;-68
2023/10/15 11:20:37;;;;;;;1.75;1.00;;;;;;;12.21;98.50;97665.91;1224458;75;2916263;-67
2023/10/15 11:23:10;;;;;;;3.75;1.90;;;;;;;12.05;100.00;97657.06;1225295;75;2912431;-70
2023/10/15 11:25:43;;;;;;;3.60;1.60;;;;;;;11.99;100.00;97659.00;1225781;75;2926571;-66
2023/10/15 11:28:16;;;;;;;6.45;1.90;;;;;;;12.00;100.00;97657.78;1225158;75;2880624;-67
2023/10/15 11:30:48;;;;;;;3.70;1.40;;;;;;;12.36;100.00;97659.06;1226067;75;2921181;-70
2023/10/15 11:33:24;;;;;;;2.20;1.45;;;;;;;12.77;100.00;97655.31;1224206;75;2923207;-67
2023/10/15 11:35:59;;;;;;;2.55;1.40;;;;;;;12.80;100.00;97648.88;1225094;75;2925671;-68
2023/10/15 11:38:39;;;;;;;3.05;1.30;;;;;;;12.53;100.00;97650.19;1224631;75;2935732;-66
2023/10/15 11:41:12;;;;;;;2.15;1.15;;;;;;;12.77;100.00;97647.84;1225195;67;2923893;-69
2023/10/15 11:43:46;;;;;;;2.45;1.40;;;;;;;12.55;100.00;97636.72;1225118;75;2920501;-71
2023/10/15 11:46:23;;;;;;;3.80;1.65;;;;;;;12.16;93.13;97634.44;1224983;75;2927108;-71
2023/10/15 11:49:00;;;;;;;4.30;1.50;;;;;;;12.09;96.60;97637.63;1224893;75;2918928;-69
2023/10/15 11:51:34;;;;;;;2.00;1.10;;;;;;;12.28;100.00;97646.25;1225606;75;2913205;-67